Dspm 1 — DSPM1 — position and weather

sailwx.info

Track history (hours):
 
Tides and Currents Weather Stations Pressure Air Temp Water Temp Dewpoint Dewpoint Depression Visibility Wind Speed Wind Dir Waves Ship Positions

Dspm 1

Last reported at 2017-Nov-07 18:05 UTC. Time now 2017-Nov-20 07:52 UTC.
Position N 39°35' W 075°35'.
Warning: this ship's position is 12 days out of date.

Length 10 m.

Type: Law enforcement. MMSI: 367551330.

Date/timePositionNaut miles runAvg speedWind from/ knotsBaromVisibWave heightAir tempDewpointWater temp
2017-Nov-07 18:05N 39°35' W 075°35'116.0
2017-Nov-07 18:01N 39°36' W 075°36'1223.4
2017-Nov-07 17:30N 39°46' W 075°29'4 8.1
2017-Nov-07 17:00N 39°49' W 075°25'0 0.0
2017-Nov-07 16:30N 39°49' W 075°25'1 1.8
2017-Nov-07 16:00N 39°48' W 075°25'0 0.1
2017-Nov-07 15:30N 39°48' W 075°25'0 0.1
2017-Nov-07 15:00N 39°48' W 075°25'0 0.2
2017-Nov-07 14:30N 39°48' W 075°25'0 0.3
2017-Nov-07 14:00N 39°48' W 075°25'1 1.4
2017-Nov-07 13:30N 39°49' W 075°25'0 0.4
2017-Nov-07 13:00N 39°49' W 075°25'0 0.0
2017-Nov-07 12:30N 39°49' W 075°25'0 0.0
2017-Nov-07 12:00N 39°49' W 075°25'918.8
2017-Nov-07 11:31N 39°41' W 075°31'713.9
2017-Nov-07 11:00N 39°35' W 075°35'0 0.2
2017-Nov-07 10:30N 39°35' W 075°35'  
2017-Nov-02 21:00N 39°35' W 075°35'0 0.0
2017-Nov-02 20:30N 39°35' W 075°35'611.9
2017-Nov-02 20:01N 39°29' W 075°33'1224.2
2017-Nov-02 19:31N 39°19' W 075°24'1529.1
2017-Nov-02 18:59N 39°04' W 075°19'13 2.6
2017-Nov-02 14:06N 38°52' W 075°13'0 0.1
2017-Nov-02 13:47N 38°52' W 075°13'0 0.1
2017-Nov-02 13:28N 38°52' W 075°13'0 0.0
2017-Nov-02 12:57N 38°52' W 075°13'  
Track history (hours):
 
Tides and Currents Weather Stations Pressure Air Temp Water Temp Dewpoint Dewpoint Depression Visibility Wind Speed Wind Dir Waves Ship Positions

Dspm 1

Last reported at 2017-Nov-07 18:05 UTC. Time now 2017-Nov-20 07:52 UTC.
Position N 39°35' W 075°35'.
Warning: this ship's position is 12 days out of date.

Length 10 m.

Type: Law enforcement. MMSI: 367551330.

Date/timePositionNaut miles runAvg speedWind from/ knotsBaromVisibWave heightAir tempDewpointWater temp
2017-Nov-07 18:05N 39°35' W 075°35'116.0
2017-Nov-07 18:01N 39°36' W 075°36'1223.4
2017-Nov-07 17:30N 39°46' W 075°29'4 8.1
2017-Nov-07 17:00N 39°49' W 075°25'0 0.0
2017-Nov-07 16:30N 39°49' W 075°25'1 1.8
2017-Nov-07 16:00N 39°48' W 075°25'0 0.1
2017-Nov-07 15:30N 39°48' W 075°25'0 0.1
2017-Nov-07 15:00N 39°48' W 075°25'0 0.2
2017-Nov-07 14:30N 39°48' W 075°25'0 0.3
2017-Nov-07 14:00N 39°48' W 075°25'1 1.4
2017-Nov-07 13:30N 39°49' W 075°25'0 0.4
2017-Nov-07 13:00N 39°49' W 075°25'0 0.0
2017-Nov-07 12:30N 39°49' W 075°25'0 0.0
2017-Nov-07 12:00N 39°49' W 075°25'918.8
2017-Nov-07 11:31N 39°41' W 075°31'713.9
2017-Nov-07 11:00N 39°35' W 075°35'0 0.2
2017-Nov-07 10:30N 39°35' W 075°35'  
2017-Nov-02 21:00N 39°35' W 075°35'0 0.0
2017-Nov-02 20:30N 39°35' W 075°35'611.9
2017-Nov-02 20:01N 39°29' W 075°33'1224.2
2017-Nov-02 19:31N 39°19' W 075°24'1529.1
2017-Nov-02 18:59N 39°04' W 075°19'13 2.6
2017-Nov-02 14:06N 38°52' W 075°13'0 0.1
2017-Nov-02 13:47N 38°52' W 075°13'0 0.1
2017-Nov-02 13:28N 38°52' W 075°13'0 0.0
2017-Nov-02 12:57N 38°52' W 075°13'  

Dump ship's entire track history